sensor_id;sensor_type;location;lat;lon;timestamp;temperature;humidity
71436;SHT31;59251;51.326;12.370;2022-09-20T00:01:08;10.21;92.78
71436;SHT31;59251;51.326;12.370;2022-09-20T00:03:42;10.40;92.49
71436;SHT31;59251;51.326;12.370;2022-09-20T00:06:09;10.49;91.67
71436;SHT31;59251;51.326;12.370;2022-09-20T00:08:35;10.48;91.68
71436;SHT31;59251;51.326;12.370;2022-09-20T00:11:05;10.55;91.37
71436;SHT31;59251;51.326;12.370;2022-09-20T00:13:31;10.53;91.48
71436;SHT31;59251;51.326;12.370;2022-09-20T00:15:58;10.48;91.74
71436;SHT31;59251;51.326;12.370;2022-09-20T00:18:24;10.44;91.79
71436;SHT31;59251;51.326;12.370;2022-09-20T00:20:50;10.41;92.79
71436;SHT31;59251;51.326;12.370;2022-09-20T00:23:16;10.52;92.03
71436;SHT31;59251;51.326;12.370;2022-09-20T00:25:42;10.53;92.03
71436;SHT31;59251;51.326;12.370;2022-09-20T00:28:08;10.28;92.26
71436;SHT31;59251;51.326;12.370;2022-09-20T00:30:34;10.20;92.81
71436;SHT31;59251;51.326;12.370;2022-09-20T00:33:00;10.21;93.03
71436;SHT31;59251;51.326;12.370;2022-09-20T00:35:27;10.25;92.77
71436;SHT31;59251;51.326;12.370;2022-09-20T00:37:53;10.42;92.76
71436;SHT31;59251;51.326;12.370;2022-09-20T00:40:20;10.25;93.53
71436;SHT31;59251;51.326;12.370;2022-09-20T00:42:47;10.25;93.52
71436;SHT31;59251;51.326;12.370;2022-09-20T00:45:24;10.14;94.57
71436;SHT31;59251;51.326;12.370;2022-09-20T00:50:50;10.49;93.12
71436;SHT31;59251;51.326;12.370;2022-09-20T00:53:24;10.38;93.32
71436;SHT31;59251;51.326;12.370;2022-09-20T00:55:58;10.30;93.87
71436;SHT31;59251;51.326;12.370;2022-09-20T00:58:27;10.53;93.13
71436;SHT31;59251;51.326;12.370;2022-09-20T01:00:54;10.20;94.50
71436;SHT31;59251;51.326;12.370;2022-09-20T01:03:21;10.49;93.45
71436;SHT31;59251;51.326;12.370;2022-09-20T01:05:53;10.38;93.87
71436;SHT31;59251;51.326;12.370;2022-09-20T01:08:20;10.13;95.09
71436;SHT31;59251;51.326;12.370;2022-09-20T01:10:48;10.14;95.44
71436;SHT31;59251;51.326;12.370;2022-09-20T01:13:14;10.18;94.94
71436;SHT31;59251;51.326;12.370;2022-09-20T01:15:41;10.28;94.79
71436;SHT31;59251;51.326;12.370;2022-09-20T01:18:08;10.32;94.20
71436;SHT31;59251;51.326;12.370;2022-09-20T01:20:36;10.45;94.63
71436;SHT31;59251;51.326;12.370;2022-09-20T01:23:35;10.45;94.98
71436;SHT31;59251;51.326;12.370;2022-09-20T01:28:40;10.48;93.95
71436;SHT31;59251;51.326;12.370;2022-09-20T01:31:25;10.40;95.20
71436;SHT31;59251;51.326;12.370;2022-09-20T01:33:58;10.52;94.65
71436;SHT31;59251;51.326;12.370;2022-09-20T01:36:32;10.65;93.70
71436;SHT31;59251;51.326;12.370;2022-09-20T01:39:12;10.44;94.17
71436;SHT31;59251;51.326;12.370;2022-09-20T01:41:54;10.41;94.14
71436;SHT31;59251;51.326;12.370;2022-09-20T01:47:23;10.25;95.02
71436;SHT31;59251;51.326;12.370;2022-09-20T02:15:26;10.45;94.38
71436;SHT31;59251;51.326;12.370;2022-09-20T02:18:36;10.45;93.96
71436;SHT31;59251;51.326;12.370;2022-09-20T02:24:21;10.08;95.19
71436;SHT31;59251;51.326;12.370;2022-09-20T02:40:53;10.27;92.82
71436;SHT31;59251;51.326;12.370;2022-09-20T02:46:25;10.40;92.14
71436;SHT31;59251;51.326;12.370;2022-09-20T02:51:39;10.20;92.97
71436;SHT31;59251;51.326;12.370;2022-09-20T03:00:05;10.25;92.93
71436;SHT31;59251;51.326;12.370;2022-09-20T03:11:21;10.37;91.36
71436;SHT31;59251;51.326;12.370;2022-09-20T03:16:46;10.14;91.62
71436;SHT31;59251;51.326;12.370;2022-09-20T03:19:35;10.17;91.92
71436;SHT31;59251;51.326;12.370;2022-09-20T03:25:32;10.27;91.22
71436;SHT31;59251;51.326;12.370;2022-09-20T03:31:13;9.89;93.05
71436;SHT31;59251;51.326;12.370;2022-09-20T03:33:46;10.22;91.72
71436;SHT31;59251;51.326;12.370;2022-09-20T03:42:05;10.07;91.40
71436;SHT31;59251;51.326;12.370;2022-09-20T03:47:35;10.34;90.93
71436;SHT31;59251;51.326;12.370;2022-09-20T03:53:06;10.01;91.67
71436;SHT31;59251;51.326;12.370;2022-09-20T03:56:14;10.18;91.50
71436;SHT31;59251;51.326;12.370;2022-09-20T04:01:42;10.17;91.29
71436;SHT31;59251;51.326;12.370;2022-09-20T04:04:22;10.20;91.02
71436;SHT31;59251;51.326;12.370;2022-09-20T04:07:09;10.18;90.99
71436;SHT31;59251;51.326;12.370;2022-09-20T04:12:13;10.13;91.54
71436;SHT31;59251;51.326;12.370;2022-09-20T04:17:56;10.00;92.33
71436;SHT31;59251;51.326;12.370;2022-09-20T04:23:20;9.95;92.78
71436;SHT31;59251;51.326;12.370;2022-09-20T04:25:50;9.98;92.61
71436;SHT31;59251;51.326;12.370;2022-09-20T04:28:25;10.00;92.66
71436;SHT31;59251;51.326;12.370;2022-09-20T04:30:57;10.00;92.79
71436;SHT31;59251;51.326;12.370;2022-09-20T04:33:30;9.95;92.94
71436;SHT31;59251;51.326;12.370;2022-09-20T04:51:25;9.63;94.30
71436;SHT31;59251;51.326;12.370;2022-09-20T05:19:15;9.70;94.54
71436;SHT31;59251;51.326;12.370;2022-09-20T05:21:57;9.70;94.23
71436;SHT31;59251;51.326;12.370;2022-09-20T05:24:41;9.84;93.68
71436;SHT31;59251;51.326;12.370;2022-09-20T05:27:35;9.95;93.44
71436;SHT31;59251;51.326;12.370;2022-09-20T05:30:10;9.94;93.14
71436;SHT31;59251;51.326;12.370;2022-09-20T05:35:11;10.11;92.81
71436;SHT31;59251;51.326;12.370;2022-09-20T05:43:12;10.08;93.09
71436;SHT31;59251;51.326;12.370;2022-09-20T05:48:36;10.21;92.86
71436;SHT31;59251;51.326;12.370;2022-09-20T05:51:45;10.11;92.86
71436;SHT31;59251;51.326;12.370;2022-09-20T05:57:20;10.22;92.40
71436;SHT31;59251;51.326;12.370;2022-09-20T06:05:24;10.30;92.06
71436;SHT31;59251;51.326;12.370;2022-09-20T06:14:01;10.31;91.88
71436;SHT31;59251;51.326;12.370;2022-09-20T06:22:22;10.42;91.59
71436;SHT31;59251;51.326;12.370;2022-09-20T06:27:26;10.56;90.92
71436;SHT31;59251;51.326;12.370;2022-09-20T06:29:57;11.00;89.66
71436;SHT31;59251;51.326;12.370;2022-09-20T06:32:24;10.93;89.70
71436;SHT31;59251;51.326;12.370;2022-09-20T06:34:51;10.63;90.89
71436;SHT31;59251;51.326;12.370;2022-09-20T06:37:51;10.32;92.77
71436;SHT31;59251;51.326;12.370;2022-09-20T06:40:46;10.41;91.84
71436;SHT31;59251;51.326;12.370;2022-09-20T06:43:31;10.38;91.52
71436;SHT31;59251;51.326;12.370;2022-09-20T06:45:57;10.37;91.71
71436;SHT31;59251;51.326;12.370;2022-09-20T06:48:22;10.38;92.08
71436;SHT31;59251;51.326;12.370;2022-09-20T06:50:49;10.28;92.37
71436;SHT31;59251;51.326;12.370;2022-09-20T06:53:26;10.46;91.61
71436;SHT31;59251;51.326;12.370;2022-09-20T06:55:52;10.65;91.97
71436;SHT31;59251;51.326;12.370;2022-09-20T06:58:17;10.48;91.60
71436;SHT31;59251;51.326;12.370;2022-09-20T07:00:43;10.59;91.15
71436;SHT31;59251;51.326;12.370;2022-09-20T07:03:08;10.79;90.88
71436;SHT31;59251;51.326;12.370;2022-09-20T07:05:36;10.83;91.04
71436;SHT31;59251;51.326;12.370;2022-09-20T07:08:03;10.59;91.41
71436;SHT31;59251;51.326;12.370;2022-09-20T07:10:29;11.17;89.25
71436;SHT31;59251;51.326;12.370;2022-09-20T07:12:59;11.38;88.38
71436;SHT31;59251;51.326;12.370;2022-09-20T07:15:26;11.42;87.64
71436;SHT31;59251;51.326;12.370;2022-09-20T07:17:52;11.00;90.00
71436;SHT31;59251;51.326;12.370;2022-09-20T07:20:18;11.10;89.85
71436;SHT31;59251;51.326;12.370;2022-09-20T07:22:45;11.26;88.81
71436;SHT31;59251;51.326;12.370;2022-09-20T07:25:10;11.52;87.86
71436;SHT31;59251;51.326;12.370;2022-09-20T07:27:36;11.50;87.83
71436;SHT31;59251;51.326;12.370;2022-09-20T07:30:02;11.21;87.98
71436;SHT31;59251;51.326;12.370;2022-09-20T07:32:28;11.00;90.37
71436;SHT31;59251;51.326;12.370;2022-09-20T07:34:54;11.17;89.10
71436;SHT31;59251;51.326;12.370;2022-09-20T07:37:19;10.97;89.55
71436;SHT31;59251;51.326;12.370;2022-09-20T07:39:45;11.27;88.70
71436;SHT31;59251;51.326;12.370;2022-09-20T07:42:11;11.14;89.41
71436;SHT31;59251;51.326;12.370;2022-09-20T07:44:37;11.41;89.82
71436;SHT31;59251;51.326;12.370;2022-09-20T07:47:07;11.66;87.33
71436;SHT31;59251;51.326;12.370;2022-09-20T07:49:34;11.76;87.54
71436;SHT31;59251;51.326;12.370;2022-09-20T07:52:00;11.10;89.89
71436;SHT31;59251;51.326;12.370;2022-09-20T07:54:25;11.59;88.03
71436;SHT31;59251;51.326;12.370;2022-09-20T07:56:54;11.81;86.44
71436;SHT31;59251;51.326;12.370;2022-09-20T07:59:20;11.48;88.04
71436;SHT31;59251;51.326;12.370;2022-09-20T08:01:45;11.39;88.16
71436;SHT31;59251;51.326;12.370;2022-09-20T08:04:11;11.81;85.76
71436;SHT31;59251;51.326;12.370;2022-09-20T08:06:38;11.82;87.24
71436;SHT31;59251;51.326;12.370;2022-09-20T08:09:05;11.57;87.92
71436;SHT31;59251;51.326;12.370;2022-09-20T08:11:31;12.06;85.95
71436;SHT31;59251;51.326;12.370;2022-09-20T08:13:58;11.93;85.53
71436;SHT31;59251;51.326;12.370;2022-09-20T08:16:25;12.77;83.37
71436;SHT31;59251;51.326;12.370;2022-09-20T08:18:54;12.81;83.37
71436;SHT31;59251;51.326;12.370;2022-09-20T08:21:24;12.74;82.18
71436;SHT31;59251;51.326;12.370;2022-09-20T08:23:50;12.30;83.67
71436;SHT31;59251;51.326;12.370;2022-09-20T08:26:19;12.98;81.89
71436;SHT31;59251;51.326;12.370;2022-09-20T08:28:46;13.09;81.62
71436;SHT31;59251;51.326;12.370;2022-09-20T08:31:13;13.26;81.52
71436;SHT31;59251;51.326;12.370;2022-09-20T08:33:40;13.20;81.65
71436;SHT31;59251;51.326;12.370;2022-09-20T08:36:07;13.29;80.56
71436;SHT31;59251;51.326;12.370;2022-09-20T08:38:34;12.65;83.56
71436;SHT31;59251;51.326;12.370;2022-09-20T08:41:11;12.77;83.27
71436;SHT31;59251;51.326;12.370;2022-09-20T08:43:52;13.22;81.35
71436;SHT31;59251;51.326;12.370;2022-09-20T08:46:22;13.29;81.24
71436;SHT31;59251;51.326;12.370;2022-09-20T08:48:51;12.78;82.80
71436;SHT31;59251;51.326;12.370;2022-09-20T08:51:17;12.40;84.84
71436;SHT31;59251;51.326;12.370;2022-09-20T08:53:47;13.12;82.16
71436;SHT31;59251;51.326;12.370;2022-09-20T08:56:14;12.58;84.88
71436;SHT31;59251;51.326;12.370;2022-09-20T08:58:40;12.51;84.51
71436;SHT31;59251;51.326;12.370;2022-09-20T09:01:05;12.45;83.84
71436;SHT31;59251;51.326;12.370;2022-09-20T09:03:32;13.12;82.48
71436;SHT31;59251;51.326;12.370;2022-09-20T09:05:58;12.80;82.41
71436;SHT31;59251;51.326;12.370;2022-09-20T09:08:33;12.78;84.46
71436;SHT31;59251;51.326;12.370;2022-09-20T09:11:04;13.18;81.37
71436;SHT31;59251;51.326;12.370;2022-09-20T09:16:26;13.12;81.24
71436;SHT31;59251;51.326;12.370;2022-09-20T09:18:50;12.75;81.95
71436;SHT31;59251;51.326;12.370;2022-09-20T09:21:34;13.37;79.37
71436;SHT31;59251;51.326;12.370;2022-09-20T09:24:11;13.01;80.41
71436;SHT31;59251;51.326;12.370;2022-09-20T09:26:41;13.58;79.04
71436;SHT31;59251;51.326;12.370;2022-09-20T09:29:22;13.12;80.34
71436;SHT31;59251;51.326;12.370;2022-09-20T09:31:49;12.89;80.53
71436;SHT31;59251;51.326;12.370;2022-09-20T09:34:30;13.30;78.87
71436;SHT31;59251;51.326;12.370;2022-09-20T09:36:56;13.73;77.25
71436;SHT31;59251;51.326;12.370;2022-09-20T09:39:27;13.54;79.35
71436;SHT31;59251;51.326;12.370;2022-09-20T09:41:53;13.74;77.04
71436;SHT31;59251;51.326;12.370;2022-09-20T09:44:30;14.85;73.61
71436;SHT31;59251;51.326;12.370;2022-09-20T09:46:58;14.29;74.60
71436;SHT31;59251;51.326;12.370;2022-09-20T09:49:28;14.25;76.11
71436;SHT31;59251;51.326;12.370;2022-09-20T09:52:17;14.24;75.50
71436;SHT31;59251;51.326;12.370;2022-09-20T09:54:51;13.37;79.25
71436;SHT31;59251;51.326;12.370;2022-09-20T09:57:27;13.49;79.48
71436;SHT31;59251;51.326;12.370;2022-09-20T10:25:40;15.15;70.47
71436;SHT31;59251;51.326;12.370;2022-09-20T10:28:15;14.24;72.32
71436;SHT31;59251;51.326;12.370;2022-09-20T10:33:29;13.84;73.61
71436;SHT31;59251;51.326;12.370;2022-09-20T10:41:38;15.66;68.61
71436;SHT31;59251;51.326;12.370;2022-09-20T10:44:36;15.98;68.04
71436;SHT31;59251;51.326;12.370;2022-09-20T10:47:15;15.17;70.69
71436;SHT31;59251;51.326;12.370;2022-09-20T10:50:13;15.43;69.87
71436;SHT31;59251;51.326;12.370;2022-09-20T10:55:28;15.74;69.56
71436;SHT31;59251;51.326;12.370;2022-09-20T11:04:55;13.66;80.40
71436;SHT31;59251;51.326;12.370;2022-09-20T11:07:38;11.90;88.41
71436;SHT31;59251;51.326;12.370;2022-09-20T11:10:20;12.17;84.97
71436;SHT31;59251;51.326;12.370;2022-09-20T11:12:52;12.12;86.05
71436;SHT31;59251;51.326;12.370;2022-09-20T11:15:49;12.47;90.28
71436;SHT31;59251;51.326;12.370;2022-09-20T11:18:23;12.41;92.09
71436;SHT31;59251;51.326;12.370;2022-09-20T11:21:07;12.44;90.44
71436;SHT31;59251;51.326;12.370;2022-09-20T11:23:50;12.67;88.54
71436;SHT31;59251;51.326;12.370;2022-09-20T11:31:43;13.70;82.61
71436;SHT31;59251;51.326;12.370;2022-09-20T11:34:29;14.00;84.12
71436;SHT31;59251;51.326;12.370;2022-09-20T11:36:58;14.93;76.76
71436;SHT31;59251;51.326;12.370;2022-09-20T11:42:04;14.55;82.29
71436;SHT31;59251;51.326;12.370;2022-09-20T11:44:31;14.69;81.24
71436;SHT31;59251;51.326;12.370;2022-09-20T11:47:19;15.71;77.47
71436;SHT31;59251;51.326;12.370;2022-09-20T11:55:41;15.04;74.74
71436;SHT31;59251;51.326;12.370;2022-09-20T11:58:14;15.65;74.20
71436;SHT31;59251;51.326;12.370;2022-09-20T12:00:48;16.27;71.44
71436;SHT31;59251;51.326;12.370;2022-09-20T12:03:48;16.66;70.74
71436;SHT31;59251;51.326;12.370;2022-09-20T12:06:36;16.84;73.06
71436;SHT31;59251;51.326;12.370;2022-09-20T12:09:22;15.35;75.29
71436;SHT31;59251;51.326;12.370;2022-09-20T12:11:48;14.98;76.12
71436;SHT31;59251;51.326;12.370;2022-09-20T12:14:24;14.76;76.02
71436;SHT31;59251;51.326;12.370;2022-09-20T12:16:49;14.67;78.01
71436;SHT31;59251;51.326;12.370;2022-09-20T12:24:33;17.16;70.88
71436;SHT31;59251;51.326;12.370;2022-09-20T12:27:01;18.95;65.45
71436;SHT31;59251;51.326;12.370;2022-09-20T12:32:01;20.39;60.00
71436;SHT31;59251;51.326;12.370;2022-09-20T12:34:33;18.87;62.35
71436;SHT31;59251;51.326;12.370;2022-09-20T12:39:33;17.04;64.50
71436;SHT31;59251;51.326;12.370;2022-09-20T12:47:22;17.90;62.19
71436;SHT31;59251;51.326;12.370;2022-09-20T12:49:50;18.32;61.43
71436;SHT31;59251;51.326;12.370;2022-09-20T12:55:30;16.56;65.26
71436;SHT31;59251;51.326;12.370;2022-09-20T13:03:33;16.79;65.81
71436;SHT31;59251;51.326;12.370;2022-09-20T13:08:42;16.56;64.75
71436;SHT31;59251;51.326;12.370;2022-09-20T13:11:22;18.10;61.28
71436;SHT31;59251;51.326;12.370;2022-09-20T13:19:28;19.37;56.16
71436;SHT31;59251;51.326;12.370;2022-09-20T13:24:43;20.52;51.86
71436;SHT31;59251;51.326;12.370;2022-09-20T13:27:14;19.97;51.15
71436;SHT31;59251;51.326;12.370;2022-09-20T13:29:42;20.97;50.70
71436;SHT31;59251;51.326;12.370;2022-09-20T13:32:28;21.63;48.72
71436;SHT31;59251;51.326;12.370;2022-09-20T13:37:36;22.47;46.59
71436;SHT31;59251;51.326;12.370;2022-09-20T13:40:03;21.70;47.31
71436;SHT31;59251;51.326;12.370;2022-09-20T13:42:31;20.86;49.66
71436;SHT31;59251;51.326;12.370;2022-09-20T13:45:01;21.03;50.15
71436;SHT31;59251;51.326;12.370;2022-09-20T13:47:29;20.56;50.03
71436;SHT31;59251;51.326;12.370;2022-09-20T13:50:06;22.92;44.09
71436;SHT31;59251;51.326;12.370;2022-09-20T13:52:53;21.56;46.20
71436;SHT31;59251;51.326;12.370;2022-09-20T13:57:54;24.29;43.62
71436;SHT31;59251;51.326;12.370;2022-09-20T14:00:22;23.33;45.89
71436;SHT31;59251;51.326;12.370;2022-09-20T14:02:50;23.43;44.73
71436;SHT31;59251;51.326;12.370;2022-09-20T14:05:18;23.61;45.87
71436;SHT31;59251;51.326;12.370;2022-09-20T14:07:45;21.11;50.63
71436;SHT31;59251;51.326;12.370;2022-09-20T14:10:35;19.73;52.91
71436;SHT31;59251;51.326;12.370;2022-09-20T14:13:04;19.29;53.43
71436;SHT31;59251;51.326;12.370;2022-09-20T14:15:41;21.08;50.54
71436;SHT31;59251;51.326;12.370;2022-09-20T14:18:12;20.30;51.72
71436;SHT31;59251;51.326;12.370;2022-09-20T14:20:40;21.07;51.56
71436;SHT31;59251;51.326;12.370;2022-09-20T14:23:20;22.30;49.05
71436;SHT31;59251;51.326;12.370;2022-09-20T14:26:07;21.69;48.66
71436;SHT31;59251;51.326;12.370;2022-09-20T14:28:32;19.81;53.17
71436;SHT31;59251;51.326;12.370;2022-09-20T14:31:08;21.22;50.81
71436;SHT31;59251;51.326;12.370;2022-09-20T14:33:40;19.69;52.79
71436;SHT31;59251;51.326;12.370;2022-09-20T14:36:24;19.18;52.96
71436;SHT31;59251;51.326;12.370;2022-09-20T14:38:56;22.00;48.24
71436;SHT31;59251;51.326;12.370;2022-09-20T14:41:41;22.27;46.25
71436;SHT31;59251;51.326;12.370;2022-09-20T14:44:32;22.11;44.65
71436;SHT31;59251;51.326;12.370;2022-09-20T14:46:59;23.42;44.34
71436;SHT31;59251;51.326;12.370;2022-09-20T14:51:53;22.16;45.39
71436;SHT31;59251;51.326;12.370;2022-09-20T14:54:35;21.01;49.38
71436;SHT31;59251;51.326;12.370;2022-09-20T14:57:01;20.02;50.34
71436;SHT31;59251;51.326;12.370;2022-09-20T14:59:34;19.26;52.40
71436;SHT31;59251;51.326;12.370;2022-09-20T15:02:03;19.22;51.42
71436;SHT31;59251;51.326;12.370;2022-09-20T15:04:35;18.26;51.79
71436;SHT31;59251;51.326;12.370;2022-09-20T15:07:04;19.90;47.97
71436;SHT31;59251;51.326;12.370;2022-09-20T15:09:30;20.40;48.13
71436;SHT31;59251;51.326;12.370;2022-09-20T15:14:38;23.17;42.33
71436;SHT31;59251;51.326;12.370;2022-09-20T15:17:06;22.76;42.74
71436;SHT31;59251;51.326;12.370;2022-09-20T15:19:33;22.94;42.85
71436;SHT31;59251;51.326;12.370;2022-09-20T15:21:59;22.22;44.60
71436;SHT31;59251;51.326;12.370;2022-09-20T15:24:24;22.88;43.39
71436;SHT31;59251;51.326;12.370;2022-09-20T15:26:50;23.49;42.21
71436;SHT31;59251;51.326;12.370;2022-09-20T15:29:16;22.49;42.82
71436;SHT31;59251;51.326;12.370;2022-09-20T15:31:43;23.10;41.32
71436;SHT31;59251;51.326;12.370;2022-09-20T15:34:09;23.44;41.49
71436;SHT31;59251;51.326;12.370;2022-09-20T15:36:36;23.51;41.81
71436;SHT31;59251;51.326;12.370;2022-09-20T15:39:02;22.55;43.59
71436;SHT31;59251;51.326;12.370;2022-09-20T15:41:29;21.03;44.92
71436;SHT31;59251;51.326;12.370;2022-09-20T15:43:55;19.42;48.80
71436;SHT31;59251;51.326;12.370;2022-09-20T15:46:23;18.17;52.79
71436;SHT31;59251;51.326;12.370;2022-09-20T15:48:50;17.96;53.30
71436;SHT31;59251;51.326;12.370;2022-09-20T15:51:16;17.51;55.93
71436;SHT31;59251;51.326;12.370;2022-09-20T15:53:43;17.60;55.63
71436;SHT31;59251;51.326;12.370;2022-09-20T15:56:19;16.56;57.30
71436;SHT31;59251;51.326;12.370;2022-09-20T15:58:47;16.69;58.83
71436;SHT31;59251;51.326;12.370;2022-09-20T16:01:13;16.22;60.02
71436;SHT31;59251;51.326;12.370;2022-09-20T16:03:43;16.01;61.27
71436;SHT31;59251;51.326;12.370;2022-09-20T16:06:09;16.00;61.58
71436;SHT31;59251;51.326;12.370;2022-09-20T16:08:37;15.63;61.64
71436;SHT31;59251;51.326;12.370;2022-09-20T16:11:05;15.21;63.28
71436;SHT31;59251;51.326;12.370;2022-09-20T16:13:31;15.35;63.58
71436;SHT31;59251;51.326;12.370;2022-09-20T16:15:58;15.18;64.17
71436;SHT31;59251;51.326;12.370;2022-09-20T16:18:24;15.21;64.66
71436;SHT31;59251;51.326;12.370;2022-09-20T16:21:10;14.91;65.34
71436;SHT31;59251;51.326;12.370;2022-09-20T16:23:40;14.87;66.08
71436;SHT31;59251;51.326;12.370;2022-09-20T16:26:07;14.70;66.84
71436;SHT31;59251;51.326;12.370;2022-09-20T16:28:41;14.76;66.99
71436;SHT31;59251;51.326;12.370;2022-09-20T16:31:27;14.53;68.02
71436;SHT31;59251;51.326;12.370;2022-09-20T16:33:53;14.55;67.93
71436;SHT31;59251;51.326;12.370;2022-09-20T16:36:18;14.55;68.23
71436;SHT31;59251;51.326;12.370;2022-09-20T16:38:44;14.53;67.65
71436;SHT31;59251;51.326;12.370;2022-09-20T16:41:10;14.42;68.17
71436;SHT31;59251;51.326;12.370;2022-09-20T16:43:36;14.36;68.10
71436;SHT31;59251;51.326;12.370;2022-09-20T16:46:02;14.32;67.91
71436;SHT31;59251;51.326;12.370;2022-09-20T16:48:29;14.24;68.28
71436;SHT31;59251;51.326;12.370;2022-09-20T16:50:56;14.18;67.79
71436;SHT31;59251;51.326;12.370;2022-09-20T16:53:24;14.09;67.99
71436;SHT31;59251;51.326;12.370;2022-09-20T16:55:50;14.01;67.87
71436;SHT31;59251;51.326;12.370;2022-09-20T16:58:16;13.91;68.55
71436;SHT31;59251;51.326;12.370;2022-09-20T17:00:42;13.85;67.80
71436;SHT31;59251;51.326;12.370;2022-09-20T17:03:07;13.82;67.48
71436;SHT31;59251;51.326;12.370;2022-09-20T17:05:32;13.79;68.29
71436;SHT31;59251;51.326;12.370;2022-09-20T17:07:58;13.64;67.61
71436;SHT31;59251;51.326;12.370;2022-09-20T17:10:24;13.56;68.19
71436;SHT31;59251;51.326;12.370;2022-09-20T17:12:52;13.51;68.47
71436;SHT31;59251;51.326;12.370;2022-09-20T17:15:22;13.60;67.71
71436;SHT31;59251;51.326;12.370;2022-09-20T17:17:47;13.46;67.72
71436;SHT31;59251;51.326;12.370;2022-09-20T17:20:12;13.53;70.95
71436;SHT31;59251;51.326;12.370;2022-09-20T17:22:38;13.26;70.81
71436;SHT31;59251;51.326;12.370;2022-09-20T17:25:03;12.91;73.39
71436;SHT31;59251;51.326;12.370;2022-09-20T17:27:30;12.99;72.34
71436;SHT31;59251;51.326;12.370;2022-09-20T17:29:56;12.84;74.58
71436;SHT31;59251;51.326;12.370;2022-09-20T17:32:21;12.57;75.92
71436;SHT31;59251;51.326;12.370;2022-09-20T17:34:46;12.20;78.75
71436;SHT31;59251;51.326;12.370;2022-09-20T17:37:12;12.12;79.33
71436;SHT31;59251;51.326;12.370;2022-09-20T17:39:37;12.09;79.58
71436;SHT31;59251;51.326;12.370;2022-09-20T17:42:05;11.89;81.16
71436;SHT31;59251;51.326;12.370;2022-09-20T17:44:31;11.72;81.75
71436;SHT31;59251;51.326;12.370;2022-09-20T17:47:00;11.79;81.56
71436;SHT31;59251;51.326;12.370;2022-09-20T17:49:26;11.55;82.15
71436;SHT31;59251;51.326;12.370;2022-09-20T17:51:53;11.54;83.36
71436;SHT31;59251;51.326;12.370;2022-09-20T17:54:19;11.35;83.71
71436;SHT31;59251;51.326;12.370;2022-09-20T17:56:51;11.20;83.99
71436;SHT31;59251;51.326;12.370;2022-09-20T17:59:18;11.11;84.35
71436;SHT31;59251;51.326;12.370;2022-09-20T18:01:45;11.17;84.01
71436;SHT31;59251;51.326;12.370;2022-09-20T18:04:12;10.99;85.03
71436;SHT31;59251;51.326;12.370;2022-09-20T18:06:39;11.00;85.38
71436;SHT31;59251;51.326;12.370;2022-09-20T18:09:09;11.06;85.31
71436;SHT31;59251;51.326;12.370;2022-09-20T18:11:54;10.93;85.73
71436;SHT31;59251;51.326;12.370;2022-09-20T18:14:22;10.92;86.09
71436;SHT31;59251;51.326;12.370;2022-09-20T18:16:52;10.82;86.21
71436;SHT31;59251;51.326;12.370;2022-09-20T18:19:19;10.75;87.20
71436;SHT31;59251;51.326;12.370;2022-09-20T18:21:46;10.82;87.33
71436;SHT31;59251;51.326;12.370;2022-09-20T18:24:12;10.72;87.18
71436;SHT31;59251;51.326;12.370;2022-09-20T18:26:38;10.96;84.84
71436;SHT31;59251;51.326;12.370;2022-09-20T18:29:09;10.95;85.47
71436;SHT31;59251;51.326;12.370;2022-09-20T18:34:15;11.28;84.59
71436;SHT31;59251;51.326;12.370;2022-09-20T18:36:44;11.18;85.60
71436;SHT31;59251;51.326;12.370;2022-09-20T18:39:10;11.48;85.12
71436;SHT31;59251;51.326;12.370;2022-09-20T18:41:38;11.17;84.67
71436;SHT31;59251;51.326;12.370;2022-09-20T18:44:06;11.23;84.39
71436;SHT31;59251;51.326;12.370;2022-09-20T18:46:32;11.24;86.34
71436;SHT31;59251;51.326;12.370;2022-09-20T18:49:04;11.11;87.25
71436;SHT31;59251;51.326;12.370;2022-09-20T18:51:30;11.27;86.34
71436;SHT31;59251;51.326;12.370;2022-09-20T18:53:56;10.89;88.21
71436;SHT31;59251;51.326;12.370;2022-09-20T18:58:55;10.65;88.68
71436;SHT31;59251;51.326;12.370;2022-09-20T19:07:30;10.89;88.14
71436;SHT31;59251;51.326;12.370;2022-09-20T19:12:53;10.52;90.03
71436;SHT31;59251;51.326;12.370;2022-09-20T19:15:47;10.32;89.97
71436;SHT31;59251;51.326;12.370;2022-09-20T19:26:29;10.17;90.75
71436;SHT31;59251;51.326;12.370;2022-09-20T19:28:57;10.21;90.27
71436;SHT31;59251;51.326;12.370;2022-09-20T19:31:29;10.10;90.71
71436;SHT31;59251;51.326;12.370;2022-09-20T19:33:58;10.13;90.62
71436;SHT31;59251;51.326;12.370;2022-09-20T19:36:28;10.08;90.68
71436;SHT31;59251;51.326;12.370;2022-09-20T19:39:10;9.83;91.75
71436;SHT31;59251;51.326;12.370;2022-09-20T19:47:28;9.97;91.15
71436;SHT31;59251;51.326;12.370;2022-09-20T19:52:32;9.67;93.15
71436;SHT31;59251;51.326;12.370;2022-09-20T19:54:58;9.74;92.99
71436;SHT31;59251;51.326;12.370;2022-09-20T19:57:34;9.65;93.16
71436;SHT31;59251;51.326;12.370;2022-09-20T20:00:01;9.69;93.12
71436;SHT31;59251;51.326;12.370;2022-09-20T20:02:27;9.70;92.67
71436;SHT31;59251;51.326;12.370;2022-09-20T20:04:52;9.45;93.45
71436;SHT31;59251;51.326;12.370;2022-09-20T20:07:24;9.35;93.82
71436;SHT31;59251;51.326;12.370;2022-09-20T20:10:00;9.49;93.31
71436;SHT31;59251;51.326;12.370;2022-09-20T20:12:33;9.40;93.39
71436;SHT31;59251;51.326;12.370;2022-09-20T20:17:50;9.74;91.74
71436;SHT31;59251;51.326;12.370;2022-09-20T20:25:44;9.57;92.16
71436;SHT31;59251;51.326;12.370;2022-09-20T20:28:11;9.38;93.26
71436;SHT31;59251;51.326;12.370;2022-09-20T20:30:37;9.35;92.97
71436;SHT31;59251;51.326;12.370;2022-09-20T20:33:02;9.25;93.85
71436;SHT31;59251;51.326;12.370;2022-09-20T20:35:30;9.22;93.60
71436;SHT31;59251;51.326;12.370;2022-09-20T20:37:56;9.15;93.96
71436;SHT31;59251;51.326;12.370;2022-09-20T20:40:21;9.07;94.33
71436;SHT31;59251;51.326;12.370;2022-09-20T20:42:47;9.08;94.87
71436;SHT31;59251;51.326;12.370;2022-09-20T20:45:12;9.08;94.49
71436;SHT31;59251;51.326;12.370;2022-09-20T20:47:38;9.11;94.87
71436;SHT31;59251;51.326;12.370;2022-09-20T20:50:07;8.88;95.86
71436;SHT31;59251;51.326;12.370;2022-09-20T20:52:36;8.97;95.64
71436;SHT31;59251;51.326;12.370;2022-09-20T20:55:01;9.00;95.15
71436;SHT31;59251;51.326;12.370;2022-09-20T20:57:27;9.24;94.58
71436;SHT31;59251;51.326;12.370;2022-09-20T20:59:52;9.10;94.27
71436;SHT31;59251;51.326;12.370;2022-09-20T21:02:17;8.90;95.05
71436;SHT31;59251;51.326;12.370;2022-09-20T21:04:43;8.73;96.02